Time;durP1;ratioP1;P1;durP2;ratioP2;P2;SDS_P1;SDS_P2;PMS_P1;PMS_P2;Temp;Humidity;BMP_temperature;BMP_pressure;BME280_temperature;BME280_humidity;BME280_pressure;Samples;Min_cycle;Max_cycle;Signal;HPM_P1;HPM_P2
2022/05/06 00:00:07;;;;;;;4.60;4.10;;;;;;;7.30;79.66;96282.03;1743855;82;21023;-68
2022/05/06 00:02:35;;;;;;;5.93;4.37;;;;;;;7.25;79.57;96285.07;1743949;82;21490;-68
2022/05/06 00:05:03;;;;;;;5.83;4.97;;;;;;;7.12;80.21;96279.75;1743904;82;21031;-68
2022/05/06 00:07:31;;;;;;;6.17;5.23;;;;;;;7.10;81.06;96275.36;1743781;82;21023;-68
2022/05/06 00:09:57;;;;;;;7.07;4.73;;;;;;;7.09;80.23;96278.86;1743978;82;21063;-68
2022/05/06 00:12:24;;;;;;;6.03;5.37;;;;;;;7.04;81.07;96277.96;1744130;82;20995;-68
2022/05/06 00:14:53;;;;;;;6.43;5.63;;;;;;;7.02;81.41;96270.06;1743802;82;21031;-68
2022/05/06 00:17:19;;;;;;;7.30;5.43;;;;;;;7.04;80.84;96269.65;1743522;82;21035;-67
2022/05/06 00:19:46;;;;;;;6.13;5.33;;;;;;;7.08;80.38;96275.38;1744025;82;20972;-67
2022/05/06 00:22:13;;;;;;;8.57;6.13;;;;;;;7.03;80.90;96275.78;1743453;82;21078;-67
2022/05/06 00:24:41;;;;;;;5.77;5.17;;;;;;;7.01;80.69;96275.33;1743820;82;21079;-67
2022/05/06 00:27:08;;;;;;;6.33;4.97;;;;;;;6.93;80.62;96276.16;1743707;82;21146;-67
2022/05/06 00:29:34;;;;;;;6.23;5.30;;;;;;;6.88;80.30;96275.25;1743864;82;21533;-67
2022/05/06 00:32:02;;;;;;;7.37;5.40;;;;;;;6.88;80.46;96280.48;1743609;82;21072;-67
2022/05/06 00:34:28;;;;;;;5.33;4.10;;;;;;;6.89;80.54;96279.61;1743838;82;21019;-67
2022/05/06 00:36:55;;;;;;;6.97;5.30;;;;;;;6.86;80.79;96281.34;1743859;82;21454;-67
2022/05/06 00:39:22;;;;;;;5.50;4.50;;;;;;;6.79;80.68;96280.41;1744181;82;20976;-68
2022/05/06 00:41:54;;;;;;;6.77;4.97;;;;;;;6.76;80.65;96273.84;1743357;82;21040;-68
2022/05/06 00:44:22;;;;;;;5.00;4.50;;;;;;;6.72;80.87;96272.92;1733012;83;20973;-68
2022/05/06 00:46:52;;;;;;;6.03;5.03;;;;;;;6.75;81.36;96272.51;1743663;82;21020;-68
2022/05/06 00:49:20;;;;;;;5.80;4.60;;;;;;;6.73;81.75;96269.89;1743868;82;21015;-68
2022/05/06 00:51:47;;;;;;;5.17;4.57;;;;;;;6.82;81.69;96274.31;1743925;82;21012;-67
2022/05/06 00:54:15;;;;;;;4.83;4.03;;;;;;;6.81;81.39;96277.38;1743886;82;20960;-67
2022/05/06 00:56:44;;;;;;;5.40;4.50;;;;;;;6.82;81.07;96280.87;1743907;82;21011;-67
2022/05/06 00:59:13;;;;;;;4.30;3.83;;;;;;;6.85;81.40;96280.44;1744182;82;20984;-67
2022/05/06 01:01:40;;;;;;;6.63;4.13;;;;;;;6.89;80.92;96279.61;1743729;82;21000;-67
2022/05/06 01:04:08;;;;;;;4.93;4.33;;;;;;;6.86;80.85;96280.91;1743730;82;21016;-67
2022/05/06 01:06:36;;;;;;;7.43;4.30;;;;;;;6.78;80.56;96276.45;1743698;82;21108;-67
2022/05/06 01:09:04;;;;;;;5.53;4.00;;;;;;;6.67;80.93;96276.39;1743916;82;21012;-67
2022/05/06 01:11:33;;;;;;;6.70;4.60;;;;;;;6.76;81.37;96277.78;1743732;82;20988;-67
2022/05/06 01:14:00;;;;;;;5.63;4.67;;;;;;;6.85;81.47;96273.89;1744024;82;21016;-67
2022/05/06 01:16:37;;;;;;;4.53;3.70;;;;;;;6.92;81.09;96269.13;1743449;82;21015;-67
2022/05/06 01:19:05;;;;;;;4.70;4.20;;;;;;;6.94;80.76;96270.47;1743750;82;21493;-68
2022/05/06 01:21:37;;;;;;;4.77;4.27;;;;;;;6.87;80.54;96276.09;1743915;82;21046;-67
2022/05/06 01:24:05;;;;;;;5.70;4.60;;;;;;;6.85;80.68;96266.45;1743789;82;21028;-68
2022/05/06 01:27:03;;;;;;;6.37;3.90;;;;;;;6.89;80.90;96273.05;1743871;82;21484;-68
2022/05/06 01:29:31;;;;;;;4.83;4.07;;;;;;;6.83;80.47;96265.16;1743922;82;21004;-68
2022/05/06 01:31:58;;;;;;;5.43;4.27;;;;;;;6.68;80.65;96262.43;1743369;82;21067;-68
2022/05/06 01:34:30;;;;;;;4.30;3.90;;;;;;;6.67;80.70;96258.91;1744010;82;21008;-67
2022/05/06 01:37:01;;;;;;;5.13;3.70;;;;;;;6.65;80.47;96261.97;1743867;82;21012;-67
2022/05/06 01:39:36;;;;;;;4.77;4.07;;;;;;;6.58;80.34;96260.61;1743850;82;21031;-67
2022/05/06 01:42:06;;;;;;;4.17;3.77;;;;;;;6.56;80.57;96257.96;1753209;82;21011;-67
2022/05/06 01:44:41;;;;;;;4.33;3.90;;;;;;;6.56;80.78;96263.64;1756032;82;21544;-67
2022/05/06 01:47:19;;;;;;;5.97;4.00;;;;;;;6.53;81.23;96262.28;1758346;82;21070;-67
2022/05/06 01:49:49;;;;;;;4.50;3.93;;;;;;;6.55;81.43;96261.87;1758593;82;21026;-68
2022/05/06 01:52:17;;;;;;;6.00;4.13;;;;;;;6.54;81.98;96258.37;1758009;82;21054;-67
2022/05/06 01:54:47;;;;;;;5.37;3.83;;;;;;;6.57;82.27;96262.33;1758454;82;21477;-67
2022/05/06 01:57:15;;;;;;;4.10;3.50;;;;;;;6.61;81.74;96256.69;1758520;82;21484;-67
2022/05/06 01:59:42;;;;;;;5.43;4.83;;;;;;;6.66;81.59;96257.16;1758176;82;21011;-68
2022/05/06 02:02:17;;;;;;;7.23;5.83;;;;;;;6.68;81.53;96259.37;1756623;82;21007;-68
2022/05/06 02:07:30;;;;;;;5.93;4.83;;;;;;;6.82;81.35;96251.58;1757738;82;21019;-67
2022/05/06 02:09:57;;;;;;;6.10;5.30;;;;;;;6.80;80.55;96267.73;1758542;82;20995;-67
2022/05/06 02:12:26;;;;;;;6.03;4.53;;;;;;;6.75;81.08;96262.02;1758525;82;21059;-67
2022/05/06 02:14:54;;;;;;;4.33;3.93;;;;;;;6.59;80.54;96261.91;1756897;82;21006;-67
2022/05/06 02:17:23;;;;;;;5.73;4.70;;;;;;;6.46;80.61;96254.83;1756724;82;21027;-67
2022/05/06 02:19:51;;;;;;;6.07;4.80;;;;;;;6.36;81.30;96259.11;1756478;82;21003;-67
2022/05/06 02:22:20;;;;;;;4.60;3.97;;;;;;;6.37;81.04;96259.55;1691514;82;20988;-67
2022/05/06 02:24:57;;;;;;;6.60;4.10;;;;;;;6.36;80.63;96252.56;1757299;82;21014;-67
2022/05/06 02:27:28;;;;;;;7.33;4.60;;;;;;;6.27;80.65;96252.06;1756931;82;21070;-67
2022/05/06 02:35:29;;;;;;;5.17;4.57;;;;;;;6.26;81.49;96263.39;1758431;82;21007;-68
2022/05/06 02:37:57;;;;;;;7.37;5.70;;;;;;;6.18;80.82;96272.06;1758610;82;21011;-68
2022/05/06 02:40:25;;;;;;;5.73;5.13;;;;;;;6.12;80.96;96274.61;1758277;82;21035;-68
2022/05/06 02:42:52;;;;;;;5.90;4.90;;;;;;;6.13;81.03;96279.88;1758179;82;21067;-67
2022/05/06 02:45:20;;;;;;;7.23;5.73;;;;;;;6.14;81.28;96282.05;1758500;82;21011;-68
2022/05/06 02:47:47;;;;;;;6.93;5.03;;;;;;;6.13;81.77;96279.00;1758464;82;21058;-67
2022/05/06 02:50:14;;;;;;;6.03;4.83;;;;;;;6.11;82.26;96267.63;1758230;82;21007;-67
2022/05/06 02:52:40;;;;;;;6.93;4.53;;;;;;;6.17;82.61;96265.05;1758694;82;21019;-67
2022/05/06 02:55:07;;;;;;;5.17;4.27;;;;;;;6.19;82.34;96268.13;1758067;82;21496;-68
2022/05/06 02:57:35;;;;;;;4.20;3.77;;;;;;;6.20;81.88;96265.97;1758853;82;21528;-67
2022/05/06 03:00:04;;;;;;;7.60;4.00;;;;;;;6.26;81.98;96265.14;1758413;82;21021;-67
2022/05/06 03:02:32;;;;;;;5.80;4.00;;;;;;;6.21;81.44;96268.15;1728332;82;21528;-67
2022/05/06 03:05:00;;;;;;;12.00;6.50;;;;;;;6.13;81.39;96267.21;1758534;82;21018;-67
2022/05/06 03:07:26;;;;;;;7.63;4.30;;;;;;;6.04;82.20;96271.91;1758550;82;21505;-67
2022/05/06 03:09:54;;;;;;;6.37;4.30;;;;;;;6.10;82.82;96274.61;1758368;82;21011;-67
2022/05/06 03:12:29;;;;;;;6.33;3.90;;;;;;;6.18;82.90;96272.93;1758682;82;21026;-67
2022/05/06 03:14:58;;;;;;;5.73;3.80;;;;;;;6.25;82.50;96274.75;1758047;82;21102;-68
2022/05/06 03:17:42;;;;;;;7.40;4.13;;;;;;;6.27;81.93;96272.13;1755685;82;21455;-68
2022/05/06 03:20:09;;;;;;;5.97;4.53;;;;;;;6.25;81.74;96270.81;1758301;82;21030;-68
2022/05/06 03:22:42;;;;;;;6.27;3.77;;;;;;;6.24;81.68;96265.55;1758607;82;21500;-68
2022/05/06 03:25:12;;;;;;;;;;;;;;;6.26;81.77;96262.52;1761257;82;21031;-68
2022/05/06 03:30:28;;;;;;;6.73;4.87;;;;;;;6.23;81.88;96263.81;1758547;82;21000;-67
2022/05/06 03:32:58;;;;;;;10.87;5.57;;;;;;;6.22;82.80;96262.03;1755225;80;21011;-67
2022/05/06 03:35:27;;;;;;;7.63;4.47;;;;;;;6.35;82.89;96270.88;1786047;80;20963;-67
2022/05/06 03:37:55;;;;;;;5.53;3.77;;;;;;;6.36;82.39;96263.04;1785915;80;21487;-67
2022/05/06 03:40:23;;;;;;;5.03;3.67;;;;;;;6.39;82.19;96264.81;1755645;80;21018;-67
2022/05/06 03:42:50;;;;;;;8.20;4.37;;;;;;;6.41;82.90;96266.58;1786006;80;21011;-67
2022/05/06 03:45:18;;;;;;;6.67;3.83;;;;;;;6.44;82.20;96267.91;1785989;80;21046;-67
2022/05/06 03:47:45;;;;;;;4.53;3.93;;;;;;;6.49;81.95;96273.19;1785616;80;21046;-67
2022/05/06 03:52:58;;;;;;;12.50;8.23;;;;;;;6.73;82.90;96280.39;1785952;80;21015;-67
2022/05/06 03:55:26;;;;;;;12.93;8.83;;;;;;;6.81;82.01;96286.56;1786065;80;21465;-67
2022/05/06 03:57:54;;;;;;;19.47;10.17;;;;;;;6.80;81.42;96285.22;1786045;80;20995;-68
2022/05/06 04:00:22;;;;;;;21.70;10.20;;;;;;;6.83;82.43;96286.14;1785748;80;21481;-68
2022/05/06 04:02:50;;;;;;;13.13;8.70;;;;;;;6.94;82.77;96281.83;1785912;80;21023;-68
2022/05/06 04:05:19;;;;;;;8.10;6.27;;;;;;;7.18;82.90;96292.02;1785447;80;21026;-68
2022/05/06 04:07:47;;;;;;;7.20;5.53;;;;;;;7.31;82.37;96282.05;1786093;80;20975;-69
2022/05/06 04:10:14;;;;;;;5.73;5.03;;;;;;;7.40;81.98;96282.52;1785992;80;20991;-68
2022/05/06 04:12:41;;;;;;;14.90;9.70;;;;;;;7.51;82.13;96282.56;1785844;80;21519;-67
2022/05/06 04:15:09;;;;;;;17.43;10.53;;;;;;;7.61;82.30;96280.85;1785658;80;21106;-67
2022/05/06 04:17:36;;;;;;;16.67;11.80;;;;;;;7.69;82.12;96288.35;1785908;80;21460;-67
2022/05/06 04:25:36;;;;;;;14.70;10.93;;;;;;;7.96;82.52;96275.71;1786109;80;21014;-67
2022/05/06 04:28:04;;;;;;;12.30;9.40;;;;;;;8.14;82.24;96283.66;1785912;80;21023;-67
2022/05/06 04:30:31;;;;;;;15.03;9.97;;;;;;;8.31;81.93;96286.73;1785963;80;21532;-67
2022/05/06 04:33:03;;;;;;;13.63;9.80;;;;;;;8.42;81.76;96279.34;1785112;80;21003;-68
2022/05/06 04:35:30;;;;;;;11.37;9.13;;;;;;;8.58;81.60;96278.91;1785764;80;20968;-67
2022/05/06 04:37:57;;;;;;;10.33;7.80;;;;;;;8.74;81.35;96282.84;1786106;80;21500;-68
2022/05/06 04:40:24;;;;;;;9.00;7.67;;;;;;;8.88;80.80;96275.83;1785685;80;21007;-68
2022/05/06 04:42:50;;;;;;;10.33;7.67;;;;;;;8.95;80.20;96277.58;1789326;80;21007;-68
2022/05/06 04:45:18;;;;;;;8.93;7.70;;;;;;;9.05;80.12;96278.00;1791690;80;21026;-68
2022/05/06 04:47:47;;;;;;;10.10;8.00;;;;;;;9.18;80.03;96285.44;1790813;80;20979;-68
2022/05/06 04:50:14;;;;;;;11.40;8.27;;;;;;;9.28;79.66;96283.21;1791808;80;20995;-67
2022/05/06 04:52:40;;;;;;;9.73;8.27;;;;;;;9.35;79.83;96288.45;1791608;80;21049;-67
2022/05/06 04:55:09;;;;;;;9.50;8.50;;;;;;;9.39;79.52;96287.13;1791432;80;21497;-66
2022/05/06 04:57:36;;;;;;;9.10;8.10;;;;;;;9.48;79.68;96284.92;1791702;80;21054;-66
2022/05/06 05:00:05;;;;;;;9.60;7.80;;;;;;;9.58;79.76;96289.72;1791494;80;20967;-65
2022/05/06 05:02:33;;;;;;;13.57;8.97;;;;;;;9.75;79.71;96292.72;1790617;79;21014;-67
2022/05/06 05:05:03;;;;;;;13.27;8.40;;;;;;;9.89;79.43;96291.33;1790497;79;21304;-66
2022/05/06 05:07:31;;;;;;;14.13;8.50;;;;;;;10.08;79.28;96288.59;1789893;80;21050;-70
2022/05/06 05:09:58;;;;;;;10.37;8.77;;;;;;;10.26;78.93;96296.41;1790581;79;21023;-67
2022/05/06 05:12:25;;;;;;;15.33;8.73;;;;;;;10.44;78.52;96285.34;1789623;80;21105;-67
2022/05/06 05:14:52;;;;;;;12.60;8.63;;;;;;;10.57;76.79;96278.63;1790349;79;21053;-68
2022/05/06 05:17:20;;;;;;;12.50;8.77;;;;;;;10.73;76.86;96286.42;1791139;80;21014;-65
2022/05/06 05:19:47;;;;;;;13.00;10.03;;;;;;;10.90;77.10;96286.30;1791310;80;21026;-64
2022/05/06 05:22:14;;;;;;;10.70;7.83;;;;;;;11.12;77.09;96284.34;1790662;80;21018;-67
2022/05/06 05:24:42;;;;;;;15.18;9.43;;;;;;;11.36;76.46;96283.20;1792000;79;21009;-67
2022/05/06 05:27:10;;;;;;;11.33;8.07;;;;;;;11.50;76.12;96283.06;1794746;80;20967;-68
2022/05/06 05:29:37;;;;;;;13.20;9.15;;;;;;;11.64;75.27;96282.02;1795096;80;20975;-68
2022/05/06 05:32:06;;;;;;;14.43;10.00;;;;;;;11.76;75.38;96274.81;1795439;80;21468;-67
2022/05/06 05:34:33;;;;;;;13.78;10.05;;;;;;;11.95;75.05;96274.19;1794814;80;21013;-66
2022/05/06 05:36:59;;;;;;;13.80;9.40;;;;;;;12.09;74.93;96273.53;1793168;80;21535;-64
2022/05/06 05:39:26;;;;;;;17.80;9.23;;;;;;;12.31;74.95;96282.05;1794544;80;20990;-65
2022/05/06 05:41:54;;;;;;;14.13;8.33;;;;;;;12.46;74.11;96275.66;1788633;80;21078;-64
2022/05/06 05:49:53;;;;;;;10.60;7.78;;;;;;;12.71;72.81;96275.70;1780818;80;20995;-66
2022/05/06 05:52:21;;;;;;;8.88;7.60;;;;;;;12.83;72.59;96273.31;1778152;81;21028;-67
2022/05/06 05:54:49;;;;;;;8.93;7.33;;;;;;;12.95;72.68;96274.86;1778205;81;20995;-65
2022/05/06 05:57:16;;;;;;;8.48;6.58;;;;;;;13.05;71.86;96272.94;1777742;81;21449;-67
2022/05/06 05:59:43;;;;;;;9.13;6.97;;;;;;;13.08;70.83;96276.84;1755196;82;21011;-67
2022/05/06 06:02:11;;;;;;;9.78;6.20;;;;;;;13.14;71.38;96277.62;1777766;81;21046;-68
2022/05/06 06:04:43;;;;;;;9.25;7.33;;;;;;;13.27;71.42;96273.47;1777552;80;21551;-68
2022/05/06 06:07:11;;;;;;;12.25;8.58;;;;;;;13.36;70.57;96271.98;1740719;81;21042;-67
2022/05/06 06:09:39;;;;;;;8.35;6.78;;;;;;;13.41;70.13;96273.64;1744850;81;21595;-67
2022/05/06 06:12:09;;;;;;;10.60;6.60;;;;;;;13.48;67.99;96272.19;1777289;81;21043;-67
2022/05/06 06:14:37;;;;;;;7.83;5.72;;;;;;;13.55;67.08;96269.38;1777057;80;21524;-66
2022/05/06 06:17:05;;;;;;;6.25;5.65;;;;;;;13.66;67.29;96278.48;1745613;81;21003;-66
2022/05/06 06:19:32;;;;;;;6.53;5.87;;;;;;;13.75;67.91;96273.43;1771345;80;20984;-66
2022/05/06 06:21:59;;;;;;;7.80;6.25;;;;;;;13.90;67.85;96281.53;1749110;82;21106;-66
2022/05/06 06:24:29;;;;;;;9.23;6.60;;;;;;;14.01;67.28;96280.41;1732682;82;21093;-66
2022/05/06 06:26:58;;;;;;;9.73;6.65;;;;;;;14.12;66.66;96276.19;1787367;80;20963;-67
2022/05/06 06:29:29;;;;;;;8.28;6.60;;;;;;;14.23;66.88;96282.13;1786431;80;21027;-66
2022/05/06 06:31:56;;;;;;;9.35;6.67;;;;;;;14.39;67.42;96271.16;1787488;80;21067;-66
2022/05/06 06:34:23;;;;;;;8.40;6.70;;;;;;;14.59;67.29;96274.30;1786858;80;21061;-66
2022/05/06 06:36:50;;;;;;;10.18;7.45;;;;;;;14.69;65.95;96272.27;1784339;80;21030;-67
2022/05/06 06:39:17;;;;;;;9.05;6.78;;;;;;;14.79;66.56;96268.51;1774966;80;21042;-66
2022/05/06 06:41:46;;;;;;;7.55;6.00;;;;;;;14.88;65.88;96276.23;1775041;80;21063;-66
2022/05/06 06:44:13;;;;;;;6.92;5.70;;;;;;;14.96;66.25;96269.40;1792294;80;20983;-66
2022/05/06 06:46:44;;;;;;;9.98;6.58;;;;;;;15.05;65.93;96264.33;1768673;80;21082;-66
2022/05/06 06:49:22;;;;;;;10.23;5.90;;;;;;;15.13;64.55;96271.17;1787641;80;21124;-66
2022/05/06 06:51:53;;;;;;;10.25;6.25;;;;;;;15.20;64.42;96271.03;1787651;79;21029;-67
2022/05/06 06:54:19;;;;;;;8.03;6.10;;;;;;;15.26;62.63;96269.06;1787561;80;21069;-66
2022/05/06 06:56:46;;;;;;;7.50;5.90;;;;;;;15.35;63.77;96270.17;1788872;80;21457;-66
2022/05/06 06:59:13;;;;;;;6.87;5.25;;;;;;;15.44;63.54;96267.70;1789301;80;21041;-67
2022/05/06 07:01:39;;;;;;;8.73;6.33;;;;;;;15.54;63.49;96271.86;1788434;80;21057;-66
2022/05/06 07:04:06;;;;;;;6.55;5.95;;;;;;;15.66;62.63;96264.01;1787668;80;21141;-66
2022/05/06 07:12:03;;;;;;;6.90;5.47;;;;;;;15.86;58.46;96256.83;1789602;80;21100;-67
2022/05/06 07:14:36;;;;;;;13.23;5.90;;;;;;;15.90;57.64;96249.19;1791165;80;21077;-69
2022/05/06 07:17:05;;;;;;;11.03;6.08;;;;;;;16.03;59.71;96256.78;1791364;80;21528;-69
2022/05/06 07:19:33;;;;;;;20.75;8.73;;;;;;;16.10;58.30;96251.27;1791321;80;21541;-68
2022/05/06 07:22:00;;;;;;;25.27;10.70;;;;;;;16.10;58.30;96251.27;1791117;80;21054;-70
2022/05/06 07:24:26;;;;;;;12.07;7.17;;;;;;;16.26;57.92;96252.13;1761137;80;21027;-69
2022/05/06 07:26:54;;;;;;;9.60;6.08;;;;;;;16.26;57.92;96252.13;1791494;80;20990;-66
2022/05/06 07:29:21;;;;;;;8.98;6.50;;;;;;;16.63;58.73;96259.38;1791631;80;20990;-66
2022/05/06 07:31:47;;;;;;;6.95;5.47;;;;;;;16.63;58.73;96259.38;1790734;80;21045;-68
2022/05/06 07:34:15;;;;;;;9.78;6.40;;;;;;;16.79;56.23;96254.92;1790967;80;21121;-67
2022/05/06 07:36:42;;;;;;;9.60;5.72;;;;;;;16.99;57.30;96255.61;1786612;80;21045;-69
2022/05/06 07:39:11;;;;;;;9.38;5.72;;;;;;;17.14;57.21;96252.89;1774270;81;21076;-68
2022/05/06 07:41:38;;;;;;;8.43;5.30;;;;;;;17.27;55.39;96258.20;1774557;81;21121;-67
2022/05/06 07:44:06;;;;;;;8.05;4.40;;;;;;;17.38;55.24;96261.36;1771075;81;21407;-65
2022/05/06 07:46:34;;;;;;;5.95;4.70;;;;;;;17.44;54.77;96252.30;1769663;81;21053;-69
2022/05/06 07:49:02;;;;;;;6.03;5.42;;;;;;;17.51;53.74;96256.03;1766111;81;21057;-69
2022/05/06 07:51:29;;;;;;;5.35;4.55;;;;;;;17.53;52.59;96259.95;1736332;82;21085;-67
2022/05/06 07:53:56;;;;;;;6.53;4.70;;;;;;;17.56;53.63;96253.64;1767147;81;21092;-67
2022/05/06 07:56:24;;;;;;;6.80;5.40;;;;;;;17.65;52.72;96251.52;1737407;82;21011;-67
2022/05/06 07:58:52;;;;;;;8.40;5.03;;;;;;;17.83;53.41;96247.34;1736041;83;21011;-70
2022/05/06 08:06:36;;;;;;;10.53;5.37;;;;;;;18.23;53.39;96250.33;1757271;80;21021;-68
2022/05/06 08:09:03;;;;;;;5.92;5.22;;;;;;;18.40;53.10;96247.02;1746924;80;21148;-69
2022/05/06 08:11:30;;;;;;;12.23;8.83;;;;;;;18.52;53.88;96250.51;1736325;81;21010;-68
2022/05/06 08:13:57;;;;;;;10.08;6.67;;;;;;;18.60;54.46;96245.75;1757745;81;21613;-68
2022/05/06 08:16:23;;;;;;;7.25;6.22;;;;;;;18.68;54.23;96244.98;1758456;81;21041;-69
2022/05/06 08:18:50;;;;;;;19.73;12.95;;;;;;;18.78;54.67;96242.84;1761409;81;20986;-70
2022/05/06 08:21:16;;;;;;;6.17;5.58;;;;;;;18.90;53.62;96250.80;1787111;80;21010;-67
2022/05/06 08:23:43;;;;;;;13.15;8.25;;;;;;;19.03;54.85;96255.59;1755051;81;21073;-71
2022/05/06 08:26:10;;;;;;;5.70;5.20;;;;;;;19.07;51.74;96254.12;1741825;82;21007;-69
2022/05/06 08:28:37;;;;;;;5.60;4.60;;;;;;;19.08;51.15;96258.56;1767744;81;21014;-67
2022/05/06 08:31:04;;;;;;;6.28;4.97;;;;;;;19.05;49.07;96264.02;1736770;82;21519;-67
2022/05/06 08:33:31;;;;;;;4.85;4.33;;;;;;;19.12;51.84;96264.17;1735186;83;21619;-68
2022/05/06 08:35:58;;;;;;;4.47;4.15;;;;;;;19.14;52.70;96262.31;1767021;81;21073;-71
2022/05/06 08:38:25;;;;;;;19.42;12.45;;;;;;;19.26;52.24;96256.45;1739391;82;20967;-79
2022/05/06 08:40:52;;;;;;;8.70;5.80;;;;;;;19.43;52.85;96256.59;1771623;80;21040;-78
2022/05/06 08:43:19;;;;;;;5.58;5.10;;;;;;;19.64;53.76;96249.91;1782417;80;21006;-74
2022/05/06 08:51:13;;;;;;;5.22;4.70;;;;;;;19.96;52.64;96244.94;1787754;80;21042;-72
2022/05/06 08:53:40;;;;;;;9.68;4.78;;;;;;;19.97;51.76;96243.54;1751982;81;21005;-71
2022/05/06 08:56:07;;;;;;;6.60;5.30;;;;;;;20.15;51.56;96248.52;1765293;81;21090;-71
2022/05/06 08:58:35;;;;;;;15.53;8.70;;;;;;;20.28;51.27;96242.13;1748842;82;21021;-70
2022/05/06 09:01:09;;;;;;;5.97;4.53;;;;;;;20.47;50.15;96245.69;1784671;80;21025;-68
2022/05/06 09:03:40;;;;;;;5.20;4.35;;;;;;;20.63;50.15;96243.17;1793700;80;21059;-68
2022/05/06 09:06:21;;;;;;;4.72;4.33;;;;;;;20.75;48.86;96244.40;1794967;80;20977;-69
2022/05/06 09:08:50;;;;;;;4.65;4.20;;;;;;;20.83;47.36;96244.02;1791567;80;20990;-69
2022/05/06 09:12:40;;;;;;;5.55;4.50;;;;;;;20.78;46.72;96248.75;1795592;80;21013;-69
2022/05/06 09:13:58;;;;;;;5.28;4.20;;;;;;;20.69;46.62;96244.23;1790039;80;21080;-69
2022/05/06 09:16:40;;;;;;;4.50;4.10;;;;;;;20.66;47.61;96241.70;1795318;80;21031;-69
2022/05/06 09:19:15;;;;;;;4.42;4.03;;;;;;;20.69;46.23;96240.21;1795604;80;20989;-69
2022/05/06 09:22:03;;;;;;;5.83;4.37;;;;;;;20.69;45.95;96240.21;1794834;80;21021;-68
2022/05/06 09:24:33;;;;;;;5.08;4.50;;;;;;;20.80;47.21;96250.41;1794843;80;21065;-69
2022/05/06 09:27:09;;;;;;;8.50;4.62;;;;;;;20.95;46.52;96250.13;1794258;80;21539;-69
2022/05/06 09:29:50;;;;;;;6.65;4.30;;;;;;;21.05;46.05;96243.37;1795344;80;20969;-69
2022/05/06 09:32:26;;;;;;;4.72;4.17;;;;;;;21.11;45.38;96247.07;1794486;80;21014;-70
2022/05/06 09:35:06;;;;;;;4.35;3.95;;;;;;;21.18;44.96;96237.77;1795193;80;21004;-69
2022/05/06 09:37:42;;;;;;;4.83;4.37;;;;;;;21.23;45.18;96232.66;1794563;80;20995;-70
2022/05/06 09:40:20;;;;;;;4.92;4.40;;;;;;;21.26;44.46;96231.16;1785559;80;21460;-69
2022/05/06 09:42:58;;;;;;;5.10;4.60;;;;;;;;;;1754847;81;21061;-69
2022/05/06 09:45:40;;;;;;;4.37;3.98;;;;;;;21.56;43.13;96229.61;1737667;81;21041;-69
2022/05/06 09:48:09;;;;;;;5.12;3.92;;;;;;;21.57;43.56;96226.44;1745913;80;20987;-69
2022/05/06 09:50:47;;;;;;;6.42;3.98;;;;;;;21.55;44.14;96232.39;1795164;80;20999;-70
2022/05/06 09:53:18;;;;;;;4.60;4.15;;;;;;;21.59;42.22;96229.44;1795102;80;20975;-69
2022/05/06 09:55:47;;;;;;;5.97;4.70;;;;;;;21.74;38.67;96223.73;1795094;80;21067;-69
2022/05/06 09:58:16;;;;;;;4.72;4.00;;;;;;;21.83;40.67;96227.30;1795227;80;20999;-70
2022/05/06 10:00:43;;;;;;;4.00;3.60;;;;;;;21.93;41.59;96222.30;1795337;80;21006;-69
2022/05/06 10:03:10;;;;;;;3.92;3.62;;;;;;;21.97;41.49;96213.59;1795061;80;21452;-69
2022/05/06 10:05:38;;;;;;;4.78;3.50;;;;;;;21.95;39.76;96220.89;1793691;80;21045;-70
2022/05/06 10:08:23;;;;;;;4.20;3.80;;;;;;;21.95;39.71;96219.55;1795067;80;21578;-70
2022/05/06 10:10:59;;;;;;;5.20;3.58;;;;;;;22.02;40.38;96222.27;1795399;80;21002;-70
2022/05/06 10:13:30;;;;;;;7.70;5.03;;;;;;;22.09;38.42;96218.30;1795507;80;21469;-70
2022/05/06 10:15:58;;;;;;;4.87;3.40;;;;;;;21.99;36.74;96224.65;1795522;80;21082;-69
2022/05/06 10:18:39;;;;;;;4.22;3.60;;;;;;;21.92;38.04;96215.17;1795443;80;21469;-69
2022/05/06 10:21:12;;;;;;;3.85;3.52;;;;;;;21.93;38.39;96219.62;1795433;80;21007;-69
2022/05/06 10:23:43;;;;;;;;;;;;;;;21.92;40.18;96217.00;1797598;80;20995;-69
2022/05/06 10:26:30;;;;;;;4.17;3.52;;;;;;;21.83;40.03;96215.20;1795329;80;20100;-69
2022/05/06 10:34:29;;;;;;;4.37;3.60;;;;;;;21.85;39.03;96204.84;1795890;80;20963;-69
2022/05/06 10:37:00;;;;;;;4.80;3.72;;;;;;;22.10;39.92;96209.31;1795127;80;21051;-69
2022/05/06 10:39:36;;;;;;;7.80;3.98;;;;;;;22.47;41.81;96209.49;1795026;80;20994;-70
2022/05/06 10:42:14;;;;;;;4.65;4.05;;;;;;;22.84;39.98;96207.91;1794287;80;21078;-70
2022/05/06 10:44:52;;;;;;;4.78;3.67;;;;;;;22.91;39.45;96201.22;1786448;80;21007;-70
2022/05/06 10:47:41;;;;;;;3.98;3.65;;;;;;;22.83;38.45;96192.70;1787012;80;21508;-69
2022/05/06 10:50:16;;;;;;;4.62;3.67;;;;;;;22.89;39.16;96192.36;1786996;80;21468;-70
2022/05/06 10:52:47;;;;;;;3.98;3.58;;;;;;;23.02;37.50;96196.58;1787105;80;21049;-69
2022/05/06 10:55:16;;;;;;;4.62;4.20;;;;;;;23.10;34.98;96194.30;1786646;80;21034;-68
2022/05/06 10:57:54;;;;;;;4.33;3.92;;;;;;;23.18;36.95;96188.46;1764728;80;21036;-68
2022/05/06 11:00:23;;;;;;;4.42;3.98;;;;;;;23.26;37.87;96195.63;1752325;82;20980;-68
2022/05/06 11:02:50;;;;;;;6.15;3.87;;;;;;;23.16;37.15;96193.06;1753118;82;21145;-68
2022/05/06 11:05:24;;;;;;;5.22;3.60;;;;;;;23.14;37.42;96186.44;1753269;82;20972;-68
2022/05/06 11:07:59;;;;;;;5.03;3.98;;;;;;;23.03;38.44;96183.05;1753414;82;21015;-69
2022/05/06 11:10:29;;;;;;;5.10;3.80;;;;;;;22.76;36.75;96180.09;1753751;81;20988;-69
2022/05/06 11:12:58;;;;;;;6.37;3.52;;;;;;;22.81;37.61;96179.35;1753502;82;21054;-69
2022/05/06 11:15:31;;;;;;;4.03;3.62;;;;;;;22.82;35.39;96167.63;1753607;82;21488;-70
2022/05/06 11:18:04;;;;;;;4.87;3.58;;;;;;;22.87;36.72;96169.56;1753581;82;21022;-70
2022/05/06 11:20:37;;;;;;;4.22;3.80;;;;;;;22.79;37.83;96168.29;1753423;82;21026;-69
2022/05/06 11:23:05;;;;;;;;;;;;;;;22.61;36.98;96165.70;1756056;82;21015;-69
2022/05/06 11:25:40;;;;;;;5.62;3.67;;;;;;;22.55;36.07;96169.20;1753520;82;20391;-69
2022/05/06 11:28:20;;;;;;;4.47;3.62;;;;;;;22.41;36.97;96169.52;1753491;82;21055;-69
2022/05/06 11:30:51;;;;;;;4.45;3.70;;;;;;;22.42;37.15;96167.20;1753222;82;21062;-69
2022/05/06 11:33:27;;;;;;;6.30;4.67;;;;;;;22.29;35.82;96159.45;1753486;82;21003;-69
2022/05/06 11:36:03;;;;;;;12.75;7.47;;;;;;;22.27;36.36;96161.35;1753284;82;21022;-69
2022/05/06 11:38:42;;;;;;;3.95;3.58;;;;;;;22.28;37.53;96157.73;1753672;82;21015;-69
2022/05/06 11:41:12;;;;;;;6.67;5.00;;;;;;;22.32;36.27;96152.55;1753539;82;21528;-69
2022/05/06 11:43:45;;;;;;;3.70;3.30;;;;;;;22.29;36.99;96155.42;1752814;81;21069;-69
2022/05/06 11:49:05;;;;;;;5.05;3.50;;;;;;;22.27;35.67;96153.77;1742065;82;20992;-69
2022/05/06 11:51:39;;;;;;;5.75;3.72;;;;;;;22.28;35.93;96155.04;1741760;82;21084;-70
2022/05/06 11:54:06;;;;;;;3.62;3.33;;;;;;;22.33;35.39;96148.06;1741832;82;21018;-69
2022/05/06 11:56:34;;;;;;;4.22;3.45;;;;;;;22.36;33.94;96143.85;1714509;82;21480;-69
2022/05/06 11:59:03;;;;;;;4.47;3.37;;;;;;;22.28;34.56;96152.84;1741670;82;21070;-69
2022/05/06 12:01:32;;;;;;;6.67;3.42;;;;;;;22.11;34.84;96156.42;1741864;82;21548;-70
2022/05/06 12:04:05;;;;;;;4.42;3.52;;;;;;;22.15;34.16;96154.83;1741701;82;21537;-69
2022/05/06 12:06:33;;;;;;;8.88;3.50;;;;;;;22.21;35.60;96153.64;1741686;82;21490;-69
2022/05/06 12:09:18;;;;;;;5.25;3.50;;;;;;;22.21;34.23;96145.09;1741958;82;21023;-69
2022/05/06 12:11:46;;;;;;;5.87;3.40;;;;;;;22.22;35.63;96145.95;1742054;82;21015;-68
2022/05/06 12:14:18;;;;;;;4.70;3.60;;;;;;;22.27;35.24;96148.39;1741859;82;21020;-69
2022/05/06 12:17:00;;;;;;;5.28;4.00;;;;;;;22.30;35.33;96147.77;1741801;82;21126;-69
2022/05/06 12:19:39;;;;;;;4.50;3.50;;;;;;;22.22;34.92;96145.47;1741910;82;21064;-70
2022/05/06 12:22:23;;;;;;;5.12;3.33;;;;;;;22.20;35.77;96141.14;1741572;82;21035;-70
2022/05/06 12:24:55;;;;;;;5.03;3.67;;;;;;;22.34;34.73;96128.28;1741854;82;21038;-70
2022/05/06 12:27:31;;;;;;;5.45;3.60;;;;;;;22.47;36.81;96136.03;1741801;82;21520;-70
2022/05/06 12:29:59;;;;;;;4.12;3.50;;;;;;;22.58;35.25;96133.61;1740990;82;21075;-68
2022/05/06 12:32:31;;;;;;;4.17;3.77;;;;;;;22.76;35.93;96132.16;1741670;82;21008;-68
2022/05/06 12:35:04;;;;;;;7.55;4.60;;;;;;;22.86;35.71;96132.86;1740982;82;20992;-68
2022/05/06 12:37:31;;;;;;;5.95;3.75;;;;;;;22.94;32.75;96122.13;1741592;82;21489;-68